sensor_id;sensor_type;location;lat;lon;timestamp;pressure;altitude;pressure_sealevel;temperature;humidity
44131;BME280;29792;48.726;9.248;2023-02-20T00:00:42;98003.94;;;8.12;100.00
44131;BME280;29792;48.726;9.248;2023-02-20T00:03:08;98003.88;;;8.14;100.00
44131;BME280;29792;48.726;9.248;2023-02-20T00:05:34;98003.03;;;8.13;100.00
44131;BME280;29792;48.726;9.248;2023-02-20T00:07:59;98007.41;;;8.11;100.00
44131;BME280;29792;48.726;9.248;2023-02-20T00:10:25;97998.94;;;8.11;100.00
44131;BME280;29792;48.726;9.248;2023-02-20T00:12:51;97999.75;;;8.11;100.00
44131;BME280;29792;48.726;9.248;2023-02-20T00:15:18;98000.84;;;8.07;100.00
44131;BME280;29792;48.726;9.248;2023-02-20T00:17:44;98004.28;;;8.06;100.00
44131;BME280;29792;48.726;9.248;2023-02-20T00:20:13;98001.81;;;8.04;100.00
44131;BME280;29792;48.726;9.248;2023-02-20T00:22:39;97994.34;;;8.01;100.00
44131;BME280;29792;48.726;9.248;2023-02-20T00:25:04;97992.69;;;8.00;100.00
44131;BME280;29792;48.726;9.248;2023-02-20T00:27:30;97986.69;;;8.01;100.00
44131;BME280;29792;48.726;9.248;2023-02-20T00:29:55;97987.59;;;8.00;100.00
44131;BME280;29792;48.726;9.248;2023-02-20T00:32:21;97982.50;;;8.00;100.00
44131;BME280;29792;48.726;9.248;2023-02-20T00:34:46;97980.00;;;7.99;100.00
44131;BME280;29792;48.726;9.248;2023-02-20T00:37:11;97986.75;;;8.00;100.00
44131;BME280;29792;48.726;9.248;2023-02-20T00:39:37;97989.41;;;7.98;100.00
44131;BME280;29792;48.726;9.248;2023-02-20T00:42:02;97991.94;;;7.98;100.00
44131;BME280;29792;48.726;9.248;2023-02-20T00:44:27;97992.78;;;7.99;100.00
44131;BME280;29792;48.726;9.248;2023-02-20T00:46:53;98000.50;;;7.97;100.00
44131;BME280;29792;48.726;9.248;2023-02-20T00:49:18;98009.88;;;7.97;100.00
44131;BME280;29792;48.726;9.248;2023-02-20T00:51:43;98015.81;;;7.97;100.00
44131;BME280;29792;48.726;9.248;2023-02-20T00:54:09;98016.00;;;7.94;100.00
44131;BME280;29792;48.726;9.248;2023-02-20T00:56:34;98021.88;;;7.95;100.00
44131;BME280;29792;48.726;9.248;2023-02-20T00:58:59;98019.44;;;7.93;100.00
44131;BME280;29792;48.726;9.248;2023-02-20T01:01:25;98016.97;;;7.92;100.00
44131;BME280;29792;48.726;9.248;2023-02-20T01:03:50;98013.34;;;7.96;100.00
44131;BME280;29792;48.726;9.248;2023-02-20T01:06:16;98016.78;;;7.95;100.00
44131;BME280;29792;48.726;9.248;2023-02-20T01:08:41;98005.59;;;7.97;100.00
44131;BME280;29792;48.726;9.248;2023-02-20T01:11:07;98013.19;;;7.99;100.00
44131;BME280;29792;48.726;9.248;2023-02-20T01:13:32;98015.66;;;8.00;100.00
44131;BME280;29792;48.726;9.248;2023-02-20T01:15:57;98018.28;;;7.99;100.00
44131;BME280;29792;48.726;9.248;2023-02-20T01:18:22;98024.22;;;7.99;100.00
44131;BME280;29792;48.726;9.248;2023-02-20T01:20:48;98027.66;;;7.98;100.00
44131;BME280;29792;48.726;9.248;2023-02-20T01:23:13;98019.94;;;8.00;100.00
44131;BME280;29792;48.726;9.248;2023-02-20T01:25:38;98005.44;;;8.00;100.00
44131;BME280;29792;48.726;9.248;2023-02-20T01:28:04;98005.53;;;7.99;100.00
44131;BME280;29792;48.726;9.248;2023-02-20T01:30:29;97995.41;;;7.97;100.00
44131;BME280;29792;48.726;9.248;2023-02-20T01:32:54;97997.38;;;7.92;100.00
44131;BME280;29792;48.726;9.248;2023-02-20T01:35:20;97998.50;;;7.87;100.00
44131;BME280;29792;48.726;9.248;2023-02-20T01:37:45;97988.41;;;7.85;100.00
44131;BME280;29792;48.726;9.248;2023-02-20T01:40:19;97987.59;;;7.85;100.00
44131;BME280;29792;48.726;9.248;2023-02-20T01:42:48;97992.09;;;7.80;100.00
44131;BME280;29792;48.726;9.248;2023-02-20T01:47:50;97988.22;;;7.73;100.00
44131;BME280;29792;48.726;9.248;2023-02-20T01:50:17;97989.06;;;7.73;100.00
44131;BME280;29792;48.726;9.248;2023-02-20T01:52:51;97984.94;;;7.71;100.00
44131;BME280;29792;48.726;9.248;2023-02-20T01:55:21;97982.56;;;7.68;100.00
44131;BME280;29792;48.726;9.248;2023-02-20T01:57:50;97979.19;;;7.67;100.00
44131;BME280;29792;48.726;9.248;2023-02-20T02:00:20;97980.00;;;7.68;100.00
44131;BME280;29792;48.726;9.248;2023-02-20T02:05:21;97986.56;;;7.72;100.00
44131;BME280;29792;48.726;9.248;2023-02-20T02:07:47;97978.03;;;7.73;100.00
44131;BME280;29792;48.726;9.248;2023-02-20T02:10:15;97979.59;;;7.75;100.00
44131;BME280;29792;48.726;9.248;2023-02-20T02:12:46;97976.97;;;7.77;100.00
44131;BME280;29792;48.726;9.248;2023-02-20T02:15:19;97976.78;;;7.80;100.00
44131;BME280;29792;48.726;9.248;2023-02-20T02:18:08;97970.72;;;7.82;100.00
44131;BME280;29792;48.726;9.248;2023-02-20T02:23:34;97960.44;;;7.84;100.00
44131;BME280;29792;48.726;9.248;2023-02-20T02:26:35;97957.88;;;7.84;100.00
44131;BME280;29792;48.726;9.248;2023-02-20T02:37:20;97963.63;;;7.87;100.00
44131;BME280;29792;48.726;9.248;2023-02-20T02:42:34;97951.69;;;7.88;100.00
44131;BME280;29792;48.726;9.248;2023-02-20T02:45:15;97962.72;;;7.88;100.00
44131;BME280;29792;48.726;9.248;2023-02-20T02:47:52;97967.69;;;7.91;100.00
44131;BME280;29792;48.726;9.248;2023-02-20T02:50:31;97954.25;;;7.88;100.00
44131;BME280;29792;48.726;9.248;2023-02-20T02:52:57;97957.63;;;7.88;100.00
44131;BME280;29792;48.726;9.248;2023-02-20T02:55:28;97948.50;;;7.84;100.00
44131;BME280;29792;48.726;9.248;2023-02-20T02:57:54;97956.16;;;7.84;100.00
44131;BME280;29792;48.726;9.248;2023-02-20T03:03:31;97952.19;;;7.79;100.00
44131;BME280;29792;48.726;9.248;2023-02-20T03:06:08;97962.66;;;7.74;100.00
44131;BME280;29792;48.726;9.248;2023-02-20T03:11:21;97956.31;;;7.65;100.00
44131;BME280;29792;48.726;9.248;2023-02-20T03:14:02;97954.84;;;7.61;100.00
44131;BME280;29792;48.726;9.248;2023-02-20T03:19:45;97947.28;;;7.60;100.00
44131;BME280;29792;48.726;9.248;2023-02-20T03:22:18;97946.53;;;7.58;100.00
44131;BME280;29792;48.726;9.248;2023-02-20T03:24:48;97955.06;;;7.57;100.00
44131;BME280;29792;48.726;9.248;2023-02-20T03:27:25;97955.16;;;7.55;100.00
44131;BME280;29792;48.726;9.248;2023-02-20T03:29:56;97945.84;;;7.54;100.00
44131;BME280;29792;48.726;9.248;2023-02-20T03:32:24;97949.31;;;7.53;100.00
44131;BME280;29792;48.726;9.248;2023-02-20T03:35:10;97950.16;;;7.54;100.00
44131;BME280;29792;48.726;9.248;2023-02-20T03:37:56;97945.13;;;7.52;100.00
44131;BME280;29792;48.726;9.248;2023-02-20T03:40:42;97945.34;;;7.48;100.00
44131;BME280;29792;48.726;9.248;2023-02-20T03:43:28;97950.53;;;7.46;100.00
44131;BME280;29792;48.726;9.248;2023-02-20T03:46:13;97960.06;;;7.43;100.00
44131;BME280;29792;48.726;9.248;2023-02-20T03:48:43;97962.56;;;7.44;100.00
44131;BME280;29792;48.726;9.248;2023-02-20T03:51:10;97964.91;;;7.47;100.00
44131;BME280;29792;48.726;9.248;2023-02-20T03:53:37;97962.31;;;7.49;100.00
44131;BME280;29792;48.726;9.248;2023-02-20T03:56:07;97971.66;;;7.48;100.00
44131;BME280;29792;48.726;9.248;2023-02-20T03:58:36;97960.72;;;7.46;100.00
44131;BME280;29792;48.726;9.248;2023-02-20T04:01:05;97964.19;;;7.45;100.00
44131;BME280;29792;48.726;9.248;2023-02-20T04:03:40;97952.44;;;7.43;100.00
44131;BME280;29792;48.726;9.248;2023-02-20T04:06:09;97951.75;;;7.39;100.00
44131;BME280;29792;48.726;9.248;2023-02-20T04:08:38;97953.66;;;7.36;100.00
44131;BME280;29792;48.726;9.248;2023-02-20T04:11:16;97949.69;;;7.30;100.00
44131;BME280;29792;48.726;9.248;2023-02-20T04:13:45;97944.00;;;7.25;100.00
44131;BME280;29792;48.726;9.248;2023-02-20T04:16:12;97937.44;;;7.21;100.00
44131;BME280;29792;48.726;9.248;2023-02-20T04:18:38;97939.38;;;7.16;100.00
44131;BME280;29792;48.726;9.248;2023-02-20T04:21:09;97929.50;;;7.10;100.00
44131;BME280;29792;48.726;9.248;2023-02-20T04:23:39;97934.94;;;7.04;100.00
44131;BME280;29792;48.726;9.248;2023-02-20T04:26:11;97932.66;;;6.98;100.00
44131;BME280;29792;48.726;9.248;2023-02-20T04:28:38;97929.53;;;6.93;100.00
44131;BME280;29792;48.726;9.248;2023-02-20T04:31:03;97932.34;;;6.88;100.00
44131;BME280;29792;48.726;9.248;2023-02-20T04:33:28;97933.38;;;6.84;100.00
44131;BME280;29792;48.726;9.248;2023-02-20T04:35:54;97931.97;;;6.78;100.00
44131;BME280;29792;48.726;9.248;2023-02-20T04:38:22;97934.66;;;6.75;100.00
44131;BME280;29792;48.726;9.248;2023-02-20T04:40:47;97931.47;;;6.72;100.00
44131;BME280;29792;48.726;9.248;2023-02-20T04:43:14;97928.16;;;6.70;100.00
44131;BME280;29792;48.726;9.248;2023-02-20T04:45:40;97927.47;;;6.66;100.00
44131;BME280;29792;48.726;9.248;2023-02-20T04:48:05;97931.97;;;6.61;100.00
44131;BME280;29792;48.726;9.248;2023-02-20T04:50:33;97926.19;;;6.58;100.00
44131;BME280;29792;48.726;9.248;2023-02-20T04:52:59;97929.81;;;6.54;100.00
44131;BME280;29792;48.726;9.248;2023-02-20T04:55:25;97918.88;;;6.51;100.00
44131;BME280;29792;48.726;9.248;2023-02-20T04:57:50;97926.59;;;6.50;100.00
44131;BME280;29792;48.726;9.248;2023-02-20T05:00:18;97936.94;;;6.47;100.00
44131;BME280;29792;48.726;9.248;2023-02-20T05:02:44;97945.47;;;6.46;100.00
44131;BME280;29792;48.726;9.248;2023-02-20T05:05:23;97940.50;;;6.43;100.00
44131;BME280;29792;48.726;9.248;2023-02-20T05:07:56;97941.41;;;6.42;100.00
44131;BME280;29792;48.726;9.248;2023-02-20T05:10:24;97948.44;;;6.37;100.00
44131;BME280;29792;48.726;9.248;2023-02-20T05:12:49;97940.94;;;6.34;100.00
44131;BME280;29792;48.726;9.248;2023-02-20T05:15:15;97935.19;;;6.30;100.00
44131;BME280;29792;48.726;9.248;2023-02-20T05:17:40;97936.16;;;6.28;100.00
44131;BME280;29792;48.726;9.248;2023-02-20T05:20:06;97932.13;;;6.24;100.00
44131;BME280;29792;48.726;9.248;2023-02-20T05:22:32;97925.47;;;6.21;100.00
44131;BME280;29792;48.726;9.248;2023-02-20T05:24:57;97936.53;;;6.20;100.00
44131;BME280;29792;48.726;9.248;2023-02-20T05:27:23;97944.38;;;6.16;100.00
44131;BME280;29792;48.726;9.248;2023-02-20T05:29:51;97944.38;;;6.16;100.00
44131;BME280;29792;48.726;9.248;2023-02-20T05:32:17;97930.91;;;6.13;100.00
44131;BME280;29792;48.726;9.248;2023-02-20T05:34:43;97933.59;;;6.10;100.00
44131;BME280;29792;48.726;9.248;2023-02-20T05:37:10;97943.84;;;6.09;100.00
44131;BME280;29792;48.726;9.248;2023-02-20T05:39:36;97938.16;;;6.04;100.00
44131;BME280;29792;48.726;9.248;2023-02-20T05:42:01;97930.59;;;6.02;100.00
44131;BME280;29792;48.726;9.248;2023-02-20T05:44:26;97939.94;;;6.02;100.00
44131;BME280;29792;48.726;9.248;2023-02-20T05:46:53;97946.06;;;5.98;100.00
44131;BME280;29792;48.726;9.248;2023-02-20T05:49:19;97942.72;;;5.97;100.00
44131;BME280;29792;48.726;9.248;2023-02-20T05:51:45;97939.34;;;5.97;100.00
44131;BME280;29792;48.726;9.248;2023-02-20T05:54:10;97939.41;;;5.95;100.00
44131;BME280;29792;48.726;9.248;2023-02-20T05:56:40;97940.28;;;5.94;100.00
44131;BME280;29792;48.726;9.248;2023-02-20T05:59:05;97940.34;;;5.93;100.00
44131;BME280;29792;48.726;9.248;2023-02-20T06:01:30;97942.06;;;5.92;100.00
44131;BME280;29792;48.726;9.248;2023-02-20T06:03:56;97937.91;;;5.91;100.00
44131;BME280;29792;48.726;9.248;2023-02-20T06:06:22;97934.69;;;5.88;100.00
44131;BME280;29792;48.726;9.248;2023-02-20T06:08:47;97945.66;;;5.88;100.00
44131;BME280;29792;48.726;9.248;2023-02-20T06:11:13;97942.34;;;5.86;100.00
44131;BME280;29792;48.726;9.248;2023-02-20T06:13:40;97935.59;;;5.85;100.00
44131;BME280;29792;48.726;9.248;2023-02-20T06:16:06;97943.22;;;5.85;100.00
44131;BME280;29792;48.726;9.248;2023-02-20T06:18:31;97943.22;;;5.85;100.00
44131;BME280;29792;48.726;9.248;2023-02-20T06:20:56;97937.41;;;5.83;100.00
44131;BME280;29792;48.726;9.248;2023-02-20T06:23:22;97942.50;;;5.83;100.00
44131;BME280;29792;48.726;9.248;2023-02-20T06:25:47;97942.50;;;5.83;100.00
44131;BME280;29792;48.726;9.248;2023-02-20T06:28:12;97953.56;;;5.82;100.00
44131;BME280;29792;48.726;9.248;2023-02-20T06:30:38;97951.06;;;5.81;100.00
44131;BME280;29792;48.726;9.248;2023-02-20T06:33:03;97947.72;;;5.80;100.00
44131;BME280;29792;48.726;9.248;2023-02-20T06:35:28;97950.25;;;5.80;100.00
44131;BME280;29792;48.726;9.248;2023-02-20T06:37:53;97945.94;;;5.82;100.00
44131;BME280;29792;48.726;9.248;2023-02-20T06:40:19;97949.38;;;5.81;100.00
44131;BME280;29792;48.726;9.248;2023-02-20T06:42:44;97952.66;;;5.83;100.00
44131;BME280;29792;48.726;9.248;2023-02-20T06:45:09;97954.38;;;5.83;100.00
44131;BME280;29792;48.726;9.248;2023-02-20T06:47:35;97950.03;;;5.85;100.00
44131;BME280;29792;48.726;9.248;2023-02-20T06:50:00;97954.16;;;5.87;100.00
44131;BME280;29792;48.726;9.248;2023-02-20T06:52:26;97968.50;;;5.90;100.00
44131;BME280;29792;48.726;9.248;2023-02-20T06:54:51;97965.88;;;5.91;100.00
44131;BME280;29792;48.726;9.248;2023-02-20T06:57:18;97973.22;;;5.97;100.00
44131;BME280;29792;48.726;9.248;2023-02-20T06:59:44;97973.97;;;5.99;100.00
44131;BME280;29792;48.726;9.248;2023-02-20T07:02:13;97969.56;;;6.03;100.00
44131;BME280;29792;48.726;9.248;2023-02-20T07:04:39;97971.91;;;6.07;100.00
44131;BME280;29792;48.726;9.248;2023-02-20T07:07:04;97984.31;;;6.13;100.00
44131;BME280;29792;48.726;9.248;2023-02-20T07:09:30;97978.13;;;6.19;100.00
44131;BME280;29792;48.726;9.248;2023-02-20T07:11:55;97981.00;;;6.30;100.00
44131;BME280;29792;48.726;9.248;2023-02-20T07:14:21;97977.34;;;6.53;100.00
44131;BME280;29792;48.726;9.248;2023-02-20T07:16:46;97971.16;;;7.09;100.00
44131;BME280;29792;48.726;9.248;2023-02-20T07:19:12;97974.25;;;7.80;100.00
44131;BME280;29792;48.726;9.248;2023-02-20T07:21:37;97975.47;;;8.51;100.00
44131;BME280;29792;48.726;9.248;2023-02-20T07:24:03;97962.34;;;9.15;100.00
44131;BME280;29792;48.726;9.248;2023-02-20T07:26:29;97974.16;;;9.73;96.80
44131;BME280;29792;48.726;9.248;2023-02-20T07:28:55;97978.38;;;10.29;94.22
44131;BME280;29792;48.726;9.248;2023-02-20T07:31:23;97980.88;;;10.83;90.64
44131;BME280;29792;48.726;9.248;2023-02-20T07:33:48;97986.84;;;11.22;84.99
44131;BME280;29792;48.726;9.248;2023-02-20T07:36:14;97979.91;;;11.60;81.88
44131;BME280;29792;48.726;9.248;2023-02-20T07:38:42;97975.94;;;12.05;79.56
44131;BME280;29792;48.726;9.248;2023-02-20T07:41:08;97977.59;;;12.54;76.54
44131;BME280;29792;48.726;9.248;2023-02-20T07:43:33;97976.16;;;12.85;72.35
44131;BME280;29792;48.726;9.248;2023-02-20T07:45:59;97981.09;;;12.88;71.04
44131;BME280;29792;48.726;9.248;2023-02-20T07:48:24;97973.22;;;13.13;69.64
44131;BME280;29792;48.726;9.248;2023-02-20T07:50:49;97976.88;;;13.44;67.82
44131;BME280;29792;48.726;9.248;2023-02-20T07:53:18;97972.03;;;13.84;65.90
44131;BME280;29792;48.726;9.248;2023-02-20T07:55:44;97969.00;;;14.33;63.99
44131;BME280;29792;48.726;9.248;2023-02-20T07:58:09;97961.28;;;14.65;61.75
44131;BME280;29792;48.726;9.248;2023-02-20T08:00:35;97962.69;;;14.90;59.28
44131;BME280;29792;48.726;9.248;2023-02-20T08:03:01;97964.75;;;14.96;58.52
44131;BME280;29792;48.726;9.248;2023-02-20T08:05:26;97963.41;;;15.02;57.88
44131;BME280;29792;48.726;9.248;2023-02-20T08:07:52;97961.13;;;15.08;57.81
44131;BME280;29792;48.726;9.248;2023-02-20T08:10:21;97958.53;;;14.99;56.42
44131;BME280;29792;48.726;9.248;2023-02-20T08:12:47;97956.63;;;14.80;56.36
44131;BME280;29792;48.726;9.248;2023-02-20T08:15:13;97958.06;;;14.73;56.99
44131;BME280;29792;48.726;9.248;2023-02-20T08:17:39;97944.59;;;14.69;57.22
44131;BME280;29792;48.726;9.248;2023-02-20T08:20:06;97945.94;;;14.64;56.54
44131;BME280;29792;48.726;9.248;2023-02-20T08:22:32;97950.09;;;14.44;57.07
44131;BME280;29792;48.726;9.248;2023-02-20T08:24:57;97945.09;;;14.31;57.24
44131;BME280;29792;48.726;9.248;2023-02-20T08:27:23;97947.47;;;14.23;57.17
44131;BME280;29792;48.726;9.248;2023-02-20T08:29:48;97943.28;;;14.11;57.26
44131;BME280;29792;48.726;9.248;2023-02-20T08:32:13;97940.28;;;13.95;57.14
44131;BME280;29792;48.726;9.248;2023-02-20T08:34:39;97935.28;;;13.82;58.05
44131;BME280;29792;48.726;9.248;2023-02-20T08:37:05;97923.94;;;13.73;59.05
44131;BME280;29792;48.726;9.248;2023-02-20T08:39:30;97929.22;;;13.72;59.46
44131;BME280;29792;48.726;9.248;2023-02-20T08:41:55;97932.16;;;13.67;59.86
44131;BME280;29792;48.726;9.248;2023-02-20T08:44:20;97936.97;;;13.50;58.87
44131;BME280;29792;48.726;9.248;2023-02-20T08:46:47;97940.81;;;13.22;59.49
44131;BME280;29792;48.726;9.248;2023-02-20T08:49:13;97928.59;;;12.90;60.26
44131;BME280;29792;48.726;9.248;2023-02-20T08:51:39;97930.41;;;12.66;61.14
44131;BME280;29792;48.726;9.248;2023-02-20T08:54:04;97928.69;;;12.43;61.34
44131;BME280;29792;48.726;9.248;2023-02-20T08:56:29;97926.66;;;12.24;63.46
44131;BME280;29792;48.726;9.248;2023-02-20T08:58:55;97934.53;;;12.10;64.60
44131;BME280;29792;48.726;9.248;2023-02-20T09:01:20;97929.22;;;12.00;65.67
44131;BME280;29792;48.726;9.248;2023-02-20T09:03:45;97934.25;;;12.02;65.19
44131;BME280;29792;48.726;9.248;2023-02-20T09:06:10;97923.69;;;12.17;65.00
44131;BME280;29792;48.726;9.248;2023-02-20T09:08:36;97919.75;;;12.24;65.01
44131;BME280;29792;48.726;9.248;2023-02-20T09:11:01;97925.28;;;12.31;65.06
44131;BME280;29792;48.726;9.248;2023-02-20T09:13:27;97915.59;;;12.35;64.54
44131;BME280;29792;48.726;9.248;2023-02-20T09:15:52;97915.69;;;12.33;64.31
44131;BME280;29792;48.726;9.248;2023-02-20T09:18:17;97912.31;;;12.33;64.92
44131;BME280;29792;48.726;9.248;2023-02-20T09:20:43;97907.56;;;12.39;64.60
44131;BME280;29792;48.726;9.248;2023-02-20T09:23:08;97903.63;;;12.46;63.97
44131;BME280;29792;48.726;9.248;2023-02-20T09:25:34;97905.13;;;12.49;63.65
44131;BME280;29792;48.726;9.248;2023-02-20T09:28:00;97905.72;;;12.52;64.68
44131;BME280;29792;48.726;9.248;2023-02-20T09:30:25;97910.19;;;12.61;64.07
44131;BME280;29792;48.726;9.248;2023-02-20T09:32:51;97906.13;;;12.70;63.61
44131;BME280;29792;48.726;9.248;2023-02-20T09:35:23;97905.19;;;12.82;62.71
44131;BME280;29792;48.726;9.248;2023-02-20T09:37:49;97902.88;;;12.90;62.57
44131;BME280;29792;48.726;9.248;2023-02-20T09:40:15;97905.13;;;12.95;62.79
44131;BME280;29792;48.726;9.248;2023-02-20T09:45:31;97886.06;;;13.31;62.51
44131;BME280;29792;48.726;9.248;2023-02-20T09:50:50;97895.28;;;13.56;61.04
44131;BME280;29792;48.726;9.248;2023-02-20T09:53:29;97889.91;;;13.70;60.86
44131;BME280;29792;48.726;9.248;2023-02-20T09:55:58;97891.59;;;13.92;60.99
44131;BME280;29792;48.726;9.248;2023-02-20T09:58:32;97886.34;;;14.14;60.03
44131;BME280;29792;48.726;9.248;2023-02-20T10:01:01;97886.53;;;14.33;58.88
44131;BME280;29792;48.726;9.248;2023-02-20T10:03:33;97884.06;;;14.32;57.54
44131;BME280;29792;48.726;9.248;2023-02-20T10:06:02;97884.97;;;14.42;57.51
44131;BME280;29792;48.726;9.248;2023-02-20T10:08:34;97876.88;;;14.46;57.20
44131;BME280;29792;48.726;9.248;2023-02-20T10:11:02;97873.09;;;14.50;56.97
44131;BME280;29792;48.726;9.248;2023-02-20T10:13:39;97866.91;;;14.63;57.79
44131;BME280;29792;48.726;9.248;2023-02-20T10:27:22;97863.09;;;14.57;56.07
44131;BME280;29792;48.726;9.248;2023-02-20T10:29:49;97864.28;;;15.44;56.17
44131;BME280;29792;48.726;9.248;2023-02-20T10:32:20;97859.09;;;16.23;54.20
44131;BME280;29792;48.726;9.248;2023-02-20T10:35:02;97853.53;;;16.93;51.55
44131;BME280;29792;48.726;9.248;2023-02-20T10:37:34;97864.97;;;17.55;50.21
44131;BME280;29792;48.726;9.248;2023-02-20T10:42:53;97854.69;;;19.88;46.17
44131;BME280;29792;48.726;9.248;2023-02-20T10:45:41;97849.06;;;21.12;43.47
44131;BME280;29792;48.726;9.248;2023-02-20T10:48:10;97850.38;;;22.09;41.51
44131;BME280;29792;48.726;9.248;2023-02-20T10:51:26;97844.41;;;22.61;38.02
44131;BME280;29792;48.726;9.248;2023-02-20T10:53:39;97840.75;;;22.47;37.74
44131;BME280;29792;48.726;9.248;2023-02-20T10:56:30;97844.75;;;22.20;37.62
44131;BME280;29792;48.726;9.248;2023-02-20T10:59:22;97853.56;;;21.65;37.73
44131;BME280;29792;48.726;9.248;2023-02-20T11:01:54;97843.16;;;21.26;39.02
44131;BME280;29792;48.726;9.248;2023-02-20T11:04:22;97844.34;;;21.24;40.94
44131;BME280;29792;48.726;9.248;2023-02-20T11:06:53;97842.19;;;21.58;39.95
44131;BME280;29792;48.726;9.248;2023-02-20T11:09:20;97831.38;;;22.00;39.60
44131;BME280;29792;48.726;9.248;2023-02-20T11:11:47;97829.31;;;22.86;38.63
44131;BME280;29792;48.726;9.248;2023-02-20T11:14:21;97829.91;;;23.82;37.91
44131;BME280;29792;48.726;9.248;2023-02-20T11:17:02;97826.72;;;24.85;36.25
44131;BME280;29792;48.726;9.248;2023-02-20T11:19:39;97820.19;;;25.50;33.33
44131;BME280;29792;48.726;9.248;2023-02-20T11:22:05;97827.78;;;25.86;32.84
44131;BME280;29792;48.726;9.248;2023-02-20T11:24:35;97822.38;;;26.53;32.56
44131;BME280;29792;48.726;9.248;2023-02-20T11:27:05;97815.38;;;27.18;31.80
44131;BME280;29792;48.726;9.248;2023-02-20T11:29:34;97816.63;;;27.16;30.40
44131;BME280;29792;48.726;9.248;2023-02-20T11:32:28;97814.44;;;26.80;30.07
44131;BME280;29792;48.726;9.248;2023-02-20T11:37:38;97803.03;;;25.00;30.65
44131;BME280;29792;48.726;9.248;2023-02-20T11:40:13;97806.91;;;23.78;32.57
44131;BME280;29792;48.726;9.248;2023-02-20T11:42:39;97809.91;;;22.65;33.79
44131;BME280;29792;48.726;9.248;2023-02-20T11:45:21;97797.25;;;21.56;35.74
44131;BME280;29792;48.726;9.248;2023-02-20T11:48:09;97794.50;;;20.64;38.17
44131;BME280;29792;48.726;9.248;2023-02-20T11:50:49;97793.06;;;19.80;38.80
44131;BME280;29792;48.726;9.248;2023-02-20T11:53:22;97784.25;;;19.06;40.22
44131;BME280;29792;48.726;9.248;2023-02-20T11:55:49;97783.00;;;18.51;41.76
44131;BME280;29792;48.726;9.248;2023-02-20T11:58:30;97782.66;;;18.02;43.13
44131;BME280;29792;48.726;9.248;2023-02-20T12:00:55;97769.34;;;17.62;43.76
44131;BME280;29792;48.726;9.248;2023-02-20T12:03:27;97771.31;;;17.32;43.87
44131;BME280;29792;48.726;9.248;2023-02-20T12:05:54;97771.78;;;17.00;45.13
44131;BME280;29792;48.726;9.248;2023-02-20T12:11:18;97760.78;;;16.61;46.92
44131;BME280;29792;48.726;9.248;2023-02-20T12:13:48;97755.88;;;16.49;47.03
44131;BME280;29792;48.726;9.248;2023-02-20T12:16:36;97747.91;;;16.32;46.99
44131;BME280;29792;48.726;9.248;2023-02-20T12:22:17;97735.97;;;16.12;47.73
44131;BME280;29792;48.726;9.248;2023-02-20T12:38:43;97716.13;;;16.13;50.55
44131;BME280;29792;48.726;9.248;2023-02-20T12:52:21;97672.47;;;16.74;49.87
44131;BME280;29792;48.726;9.248;2023-02-20T12:55:00;97668.72;;;16.86;49.51
44131;BME280;29792;48.726;9.248;2023-02-20T12:59:58;97660.22;;;17.11;48.05
44131;BME280;29792;48.726;9.248;2023-02-20T13:02:38;97663.06;;;17.18;47.12
44131;BME280;29792;48.726;9.248;2023-02-20T13:05:17;97660.69;;;17.25;46.21
44131;BME280;29792;48.726;9.248;2023-02-20T13:07:56;97658.03;;;17.34;45.14
44131;BME280;29792;48.726;9.248;2023-02-20T13:10:26;97647.72;;;17.42;44.52
44131;BME280;29792;48.726;9.248;2023-02-20T13:12:53;97649.31;;;17.79;45.96
44131;BME280;29792;48.726;9.248;2023-02-20T13:18:18;97630.72;;;19.74;43.95
44131;BME280;29792;48.726;9.248;2023-02-20T13:20:50;97623.34;;;21.11;39.37
44131;BME280;29792;48.726;9.248;2023-02-20T13:25:44;97616.56;;;23.44;33.25
44131;BME280;29792;48.726;9.248;2023-02-20T13:28:52;97621.81;;;24.27;33.67
44131;BME280;29792;48.726;9.248;2023-02-20T13:31:09;97608.84;;;25.74;33.03
44131;BME280;29792;48.726;9.248;2023-02-20T13:33:35;97594.72;;;26.84;30.92
44131;BME280;29792;48.726;9.248;2023-02-20T13:36:03;97582.38;;;27.22;29.01
44131;BME280;29792;48.726;9.248;2023-02-20T13:38:29;97567.50;;;27.10;28.85
44131;BME280;29792;48.726;9.248;2023-02-20T13:46:09;97572.16;;;24.06;30.26
44131;BME280;29792;48.726;9.248;2023-02-20T13:53:43;97580.22;;;21.98;32.91
44131;BME280;29792;48.726;9.248;2023-02-20T13:56:16;97562.66;;;21.78;32.80
44131;BME280;29792;48.726;9.248;2023-02-20T13:58:43;97563.69;;;22.42;33.54
44131;BME280;29792;48.726;9.248;2023-02-20T14:01:09;97562.16;;;23.54;32.72
44131;BME280;29792;48.726;9.248;2023-02-20T14:03:34;97554.63;;;24.54;30.49
44131;BME280;29792;48.726;9.248;2023-02-20T14:08:32;97530.94;;;25.22;29.29
44131;BME280;29792;48.726;9.248;2023-02-20T14:11:14;97537.91;;;24.55;29.38
44131;BME280;29792;48.726;9.248;2023-02-20T14:13:43;97541.78;;;23.77;29.34
44131;BME280;29792;48.726;9.248;2023-02-20T14:16:32;97549.34;;;22.89;28.74
44131;BME280;29792;48.726;9.248;2023-02-20T14:19:02;97540.63;;;22.10;29.32
44131;BME280;29792;48.726;9.248;2023-02-20T14:21:32;97541.78;;;21.48;30.67
44131;BME280;29792;48.726;9.248;2023-02-20T14:24:12;97544.53;;;21.09;31.36
44131;BME280;29792;48.726;9.248;2023-02-20T14:26:40;97544.03;;;20.91;32.91
44131;BME280;29792;48.726;9.248;2023-02-20T14:29:19;97540.53;;;20.76;31.94
44131;BME280;29792;48.726;9.248;2023-02-20T14:31:45;97535.31;;;20.53;31.88
44131;BME280;29792;48.726;9.248;2023-02-20T14:34:19;97520.63;;;20.29;30.91
44131;BME280;29792;48.726;9.248;2023-02-20T14:37:22;97516.84;;;20.09;31.40
44131;BME280;29792;48.726;9.248;2023-02-20T14:42:34;97547.66;;;19.81;31.48
44131;BME280;29792;48.726;9.248;2023-02-20T14:45:05;97531.44;;;19.71;30.75
44131;BME280;29792;48.726;9.248;2023-02-20T14:47:32;97500.28;;;19.55;30.41
44131;BME280;29792;48.726;9.248;2023-02-20T14:50:20;97501.09;;;19.63;30.70
44131;BME280;29792;48.726;9.248;2023-02-20T14:52:46;97509.31;;;19.83;30.40
44131;BME280;29792;48.726;9.248;2023-02-20T14:55:17;97510.34;;;20.05;30.08